createdAt,value
2019-04-03T00:00:49.885Z,5.73
2019-04-03T00:03:54.877Z,5.00
2019-04-03T00:06:21.940Z,6.77
2019-04-03T00:08:49.024Z,5.67
2019-04-03T00:11:16.070Z,7.27
2019-04-03T00:13:43.193Z,6.00
2019-04-03T00:16:10.464Z,7.50
2019-04-03T00:18:37.559Z,6.97
2019-04-03T00:21:04.599Z,7.03
2019-04-03T00:23:31.708Z,7.50
2019-04-03T00:25:58.771Z,9.07
2019-04-03T00:28:25.868Z,7.73
2019-04-03T00:30:53.394Z,7.27
2019-04-03T00:33:22.966Z,5.30
2019-04-03T00:35:49.536Z,8.37
2019-04-03T00:38:16.585Z,6.47
2019-04-03T00:40:43.653Z,5.37
2019-04-03T00:43:33.720Z,7.03
2019-04-03T00:46:00.895Z,7.97
2019-04-03T00:48:28.038Z,7.90
2019-04-03T00:50:57.292Z,5.77
2019-04-03T00:53:24.282Z,10.97
2019-04-03T00:55:51.555Z,9.87
2019-04-03T00:58:39.497Z,9.50
2019-04-03T01:01:10.600Z,9.87
2019-04-03T01:03:38.435Z,7.73
2019-04-03T01:06:06.058Z,9.97
2019-04-03T01:08:33.097Z,8.47
2019-04-03T01:11:00.470Z,11.37
2019-04-03T01:13:28.031Z,9.03
2019-04-03T01:15:55.104Z,10.50
2019-04-03T01:18:22.142Z,9.23
2019-04-03T01:20:49.244Z,9.30
2019-04-03T01:23:16.357Z,10.53
2019-04-03T01:25:43.419Z,9.77
2019-04-03T01:28:11.717Z,12.00
2019-04-03T01:30:39.205Z,12.80
2019-04-03T01:33:06.268Z,11.13
2019-04-03T01:35:33.369Z,9.83
2019-04-03T01:38:00.421Z,11.13
2019-04-03T01:40:48.919Z,14.13
2019-04-03T01:43:17.405Z,11.37
2019-04-03T01:45:44.480Z,13.67
2019-04-03T01:48:11.612Z,12.33
2019-04-03T01:50:38.771Z,13.50
2019-04-03T01:53:05.853Z,14.40
2019-04-03T01:55:34.535Z,14.93
2019-04-03T01:58:02.049Z,14.10
2019-04-03T02:00:29.273Z,13.97
2019-04-03T02:02:56.502Z,15.07
2019-04-03T02:05:23.991Z,14.43
2019-04-03T02:07:51.100Z,11.90
2019-04-03T02:10:21.958Z,11.97
2019-04-03T02:12:51.224Z,11.43
2019-04-03T02:15:19.562Z,12.63
2019-04-03T02:18:05.572Z,14.87
2019-04-03T02:20:32.936Z,12.10
2019-04-03T02:23:00.582Z,12.83
2019-04-03T02:25:31.531Z,14.77
2019-04-03T02:27:57.824Z,15.47
2019-04-03T02:30:25.154Z,14.43
2019-04-03T02:32:55.078Z,13.07
2019-04-03T02:35:22.429Z,12.93
2019-04-03T02:37:51.503Z,12.10
2019-04-03T02:40:18.927Z,12.33
2019-04-03T02:42:46.049Z,12.83
2019-04-03T02:45:13.331Z,11.57
2019-04-03T02:47:40.420Z,12.73
2019-04-03T02:50:07.510Z,14.60
2019-04-03T02:52:35.090Z,12.23
2019-04-03T02:55:06.975Z,11.03
2019-04-03T02:57:31.512Z,11.97
2019-04-03T03:00:00.158Z,11.53
2019-04-03T03:02:27.711Z,13.43
2019-04-03T03:04:55.605Z,14.30
2019-04-03T03:07:22.776Z,9.87
2019-04-03T03:09:51.990Z,11.83
2019-04-03T03:12:19.150Z,12.67
2019-04-03T03:14:46.735Z,13.30
2019-04-03T03:17:15.593Z,13.30
2019-04-03T03:19:42.983Z,12.40
2019-04-03T03:22:10.837Z,12.97
2019-04-03T03:24:38.109Z,12.67
2019-04-03T03:27:24.118Z,14.00
2019-04-03T03:29:53.209Z,11.23
2019-04-03T03:32:28.913Z,10.73
2019-04-03T03:34:57.879Z,10.93
2019-04-03T03:37:21.242Z,14.33
2019-04-03T03:39:48.654Z,13.13
2019-04-03T03:42:16.299Z,11.50
2019-04-03T03:44:45.937Z,11.00
2019-04-03T03:47:13.656Z,9.50
2019-04-03T03:49:41.112Z,18.30
2019-04-03T03:52:08.783Z,10.90
2019-04-03T03:54:35.903Z,10.27
2019-04-03T03:57:04.735Z,10.20
2019-04-03T03:59:33.072Z,12.03
2019-04-03T04:02:03.480Z,11.77
2019-04-03T04:04:29.502Z,10.50
2019-04-03T04:06:57.526Z,13.13
2019-04-03T04:09:24.772Z,13.37
2019-04-03T04:12:09.949Z,11.90
2019-04-03T04:14:37.312Z,11.33
2019-04-03T04:17:08.421Z,12.40
2019-04-03T04:19:34.799Z,10.13
2019-04-03T04:22:02.361Z,12.90
2019-04-03T04:24:29.792Z,12.20
2019-04-03T04:26:56.891Z,13.07
2019-04-03T04:29:24.003Z,10.10
2019-04-03T04:31:52.596Z,10.73
2019-04-03T04:34:19.684Z,12.70
2019-04-03T04:36:46.805Z,11.30
2019-04-03T04:39:13.936Z,12.03
2019-04-03T04:41:41.041Z,12.60
2019-04-03T04:44:09.894Z,10.40
2019-04-03T04:46:37.309Z,10.07
2019-04-03T04:49:04.560Z,10.60
2019-04-03T04:51:31.674Z,11.50
2019-04-03T04:53:59.492Z,8.63
2019-04-03T04:56:27.203Z,10.17
2019-04-03T04:58:54.252Z,11.67
2019-04-03T05:01:21.302Z,12.57
2019-04-03T05:03:48.559Z,11.33
2019-04-03T05:06:15.715Z,9.53
2019-04-03T05:08:42.780Z,11.70
2019-04-03T05:11:09.855Z,10.63
2019-04-03T05:13:36.936Z,10.77
2019-04-03T05:16:04.130Z,12.30
2019-04-03T05:18:50.338Z,11.07
2019-04-03T05:21:21.745Z,13.17
2019-04-03T05:23:48.734Z,11.77
2019-04-03T05:26:15.808Z,12.43
2019-04-03T05:28:54.351Z,14.40
2019-04-03T05:31:12.067Z,16.83
2019-04-03T05:33:41.134Z,11.67
2019-04-03T05:36:08.169Z,21.40
2019-04-03T05:38:37.682Z,13.20
2019-04-03T05:41:04.225Z,12.70
2019-04-03T05:43:32.749Z,8.43
2019-04-03T05:46:00.050Z,11.40
2019-04-03T05:48:27.203Z,13.60
2019-04-03T05:50:54.354Z,9.53
2019-04-03T05:53:21.746Z,12.43
2019-04-03T05:55:48.933Z,9.27
2019-04-03T05:58:16.723Z,11.10
2019-04-03T06:00:44.078Z,11.87
2019-04-03T06:03:11.343Z,10.23
2019-04-03T06:05:38.834Z,10.73
2019-04-03T06:08:06.156Z,11.10
2019-04-03T06:10:37.437Z,9.00
2019-04-03T06:13:06.202Z,11.97
2019-04-03T06:15:33.419Z,9.90
2019-04-03T06:18:00.569Z,8.93
2019-04-03T06:20:27.666Z,10.17
2019-04-03T06:22:54.750Z,11.00
2019-04-03T06:25:21.962Z,8.63
2019-04-03T06:27:49.053Z,15.17
2019-04-03T06:30:16.722Z,9.63
2019-04-03T06:32:44.439Z,10.30
2019-04-03T06:35:13.353Z,14.67
2019-04-03T06:37:40.643Z,12.60
2019-04-03T06:40:07.819Z,12.27
2019-04-03T06:42:34.937Z,13.57
2019-04-03T06:45:04.304Z,11.97
2019-04-03T06:47:32.172Z,12.37
2019-04-03T06:50:22.452Z,9.33
2019-04-03T06:52:49.629Z,16.27
2019-04-03T06:55:16.981Z,13.33
2019-04-03T06:57:44.176Z,12.43
2019-04-03T07:00:11.389Z,12.40
2019-04-03T07:02:38.690Z,14.53
2019-04-03T07:05:06.197Z,11.63
2019-04-03T07:07:35.443Z,13.70
2019-04-03T07:10:04.225Z,14.40
2019-04-03T07:12:31.927Z,10.37
2019-04-03T07:14:59.133Z,11.03
2019-04-03T07:17:26.248Z,12.73
2019-04-03T07:19:53.307Z,9.63
2019-04-03T07:22:20.803Z,10.70
2019-04-03T07:24:48.108Z,12.60
2019-04-03T07:27:16.538Z,14.67
2019-04-03T07:29:43.617Z,13.53
2019-04-03T07:32:10.774Z,13.67
2019-04-03T07:34:37.876Z,13.57
2019-04-03T07:37:04.945Z,17.47
2019-04-03T07:39:32.369Z,14.93
2019-04-03T07:41:59.570Z,12.80
2019-04-03T07:44:27.652Z,9.43
2019-04-03T07:46:55.728Z,15.57
2019-04-03T07:49:22.851Z,16.70
2019-04-03T07:51:50.045Z,11.63
2019-04-03T07:54:17.159Z,14.00
2019-04-03T07:56:44.393Z,12.30
2019-04-03T07:59:11.774Z,15.87
2019-04-03T08:01:41.295Z,12.10
2019-04-03T08:04:10.698Z,15.03
2019-04-03T08:06:38.084Z,15.63
2019-04-03T08:09:09.737Z,11.33
2019-04-03T08:11:37.319Z,12.53
2019-04-03T08:14:04.963Z,12.90
2019-04-03T08:16:32.314Z,12.17
2019-04-03T08:18:59.428Z,13.77
2019-04-03T08:21:29.463Z,12.50
2019-04-03T08:23:55.519Z,14.23
2019-04-03T08:26:22.593Z,6.90
2019-04-03T08:28:49.720Z,9.20
2019-04-03T08:31:16.792Z,13.20
2019-04-03T08:33:44.143Z,10.40
2019-04-03T08:36:23.107Z,12.07
2019-04-03T08:38:40.184Z,11.77
2019-04-03T08:41:07.517Z,8.10
2019-04-03T08:43:34.921Z,9.13
2019-04-03T08:46:01.977Z,7.90
2019-04-03T08:48:29.493Z,8.47
2019-04-03T08:50:58.171Z,10.53
2019-04-03T08:53:25.677Z,9.40
2019-04-03T08:55:53.460Z,7.60
2019-04-03T08:58:23.602Z,10.50
2019-04-03T09:00:50.999Z,10.27
2019-04-03T09:03:18.391Z,12.87
2019-04-03T09:05:45.444Z,8.03
2019-04-03T09:08:19.924Z,9.27
2019-04-03T09:10:46.998Z,8.90
2019-04-03T09:13:18.042Z,13.07
2019-04-03T09:15:44.109Z,9.93
2019-04-03T09:18:11.219Z,9.47
2019-04-03T09:20:38.294Z,10.93
2019-04-03T09:23:05.430Z,8.10
2019-04-03T09:25:33.022Z,10.17
2019-04-03T09:28:00.242Z,9.83
2019-04-03T09:30:27.641Z,10.70
2019-04-03T09:32:54.734Z,11.37
2019-04-03T09:35:22.165Z,8.87
2019-04-03T09:37:50.387Z,9.20
2019-04-03T09:40:18.272Z,7.40
2019-04-03T09:42:45.586Z,9.40
2019-04-03T09:45:33.802Z,8.63
2019-04-03T09:48:14.841Z,8.13
2019-04-03T09:50:42.195Z,8.00
2019-04-03T09:53:09.288Z,8.60
2019-04-03T09:55:37.588Z,11.43
2019-04-03T09:58:05.302Z,6.93
2019-04-03T10:00:32.389Z,7.83
2019-04-03T10:02:59.642Z,9.57
2019-04-03T10:05:29.002Z,7.17
2019-04-03T10:07:56.063Z,9.17
2019-04-03T10:10:25.615Z,7.33
2019-04-03T10:12:54.212Z,8.47
2019-04-03T10:15:21.434Z,8.43
2019-04-03T10:17:49.005Z,8.13
2019-04-03T10:20:17.623Z,7.40
2019-04-03T10:22:45.393Z,7.20
2019-04-03T10:25:12.741Z,9.07
2019-04-03T10:27:42.619Z,8.90
2019-04-03T10:30:10.995Z,8.20
2019-04-03T10:32:38.458Z,8.20
2019-04-03T10:35:07.313Z,9.33
2019-04-03T10:37:35.060Z,7.77
2019-04-03T10:40:02.130Z,6.37
2019-04-03T10:42:31.271Z,8.37
2019-04-03T10:44:59.002Z,8.00
2019-04-03T10:47:39.369Z,6.70
2019-04-03T10:49:55.388Z,7.43
2019-04-03T10:52:22.645Z,6.40
2019-04-03T10:54:49.674Z,6.90
2019-04-03T10:57:16.762Z,8.60
2019-04-03T10:59:43.836Z,7.07
2019-04-03T11:02:10.985Z,7.10
2019-04-03T11:04:38.436Z,7.07
2019-04-03T11:07:05.753Z,7.97
2019-04-03T11:09:33.408Z,7.87
2019-04-03T11:12:01.349Z,9.53
2019-04-03T11:14:29.270Z,12.07
2019-04-03T11:16:56.835Z,8.53
2019-04-03T11:19:24.290Z,8.60
2019-04-03T11:21:51.404Z,8.53
2019-04-03T11:24:18.483Z,10.97
2019-04-03T11:27:25.075Z,11.80
2019-04-03T11:29:51.589Z,7.73
2019-04-03T11:32:18.751Z,11.37
2019-04-03T11:34:48.891Z,9.80
2019-04-03T11:37:15.027Z,9.67
2019-04-03T11:39:42.116Z,9.03
2019-04-03T11:42:09.195Z,9.30
2019-04-03T11:44:36.247Z,9.60
2019-04-03T11:47:03.543Z,9.70
2019-04-03T11:49:30.728Z,11.33
2019-04-03T11:51:58.979Z,8.57
2019-04-03T11:54:26.846Z,11.47
2019-04-03T11:56:56.405Z,7.73
2019-04-03T11:59:24.053Z,7.37
2019-04-03T12:01:52.587Z,7.83
2019-04-03T12:04:19.649Z,9.37
2019-04-03T12:06:46.773Z,7.80
2019-04-03T12:09:13.967Z,7.50
2019-04-03T12:11:41.221Z,7.67
2019-04-03T12:14:08.482Z,7.47
2019-04-03T12:16:35.871Z,7.80
2019-04-03T12:19:05.447Z,8.43
2019-04-03T12:21:33.722Z,8.00
2019-04-03T12:24:00.876Z,9.03
2019-04-03T12:26:28.029Z,7.50
2019-04-03T12:28:55.146Z,6.37
2019-04-03T12:31:22.540Z,4.67
2019-04-03T12:33:56.449Z,5.37
2019-04-03T12:36:18.594Z,6.77
2019-04-03T12:38:47.728Z,5.37
2019-04-03T12:41:14.808Z,4.30
2019-04-03T12:43:41.910Z,4.63
2019-04-03T12:46:08.963Z,4.87
2019-04-03T12:48:36.017Z,5.23
2019-04-03T12:51:03.319Z,4.60
2019-04-03T12:53:30.437Z,5.00
2019-04-03T12:55:59.601Z,3.23
2019-04-03T12:58:26.843Z,3.00
2019-04-03T13:00:54.358Z,3.87
2019-04-03T13:03:23.911Z,4.30
2019-04-03T13:05:50.876Z,5.10
2019-04-03T13:08:19.605Z,3.20
2019-04-03T13:10:48.971Z,5.30
2019-04-03T13:13:16.147Z,5.63
2019-04-03T13:15:43.402Z,5.00
2019-04-03T13:18:10.445Z,4.20
2019-04-03T13:20:38.159Z,3.00
2019-04-03T13:23:05.277Z,2.30
2019-04-03T13:25:32.532Z,2.93
2019-04-03T13:28:03.210Z,4.47
2019-04-03T13:31:12.931Z,3.23
2019-04-03T13:33:41.105Z,5.47
2019-04-03T13:36:08.551Z,5.00
2019-04-03T13:38:35.822Z,3.20
2019-04-03T13:41:05.188Z,7.40
2019-04-03T13:43:32.091Z,3.83
2019-04-03T13:45:59.189Z,4.57
2019-04-03T13:48:26.418Z,4.30
2019-04-03T13:50:54.843Z,4.67
2019-04-03T13:53:25.092Z,4.27
2019-04-03T13:55:51.495Z,3.93
2019-04-03T13:58:20.564Z,3.10
2019-04-03T14:00:58.614Z,5.60
2019-04-03T14:03:18.457Z,5.30
2019-04-03T14:05:45.730Z,3.93
2019-04-03T14:08:13.495Z,4.17
2019-04-03T14:10:40.861Z,4.93
2019-04-03T14:13:10.754Z,6.33
2019-04-03T14:15:36.972Z,4.37
2019-04-03T14:18:04.032Z,5.17
2019-04-03T14:20:31.086Z,4.40
2019-04-03T14:23:02.892Z,5.87
2019-04-03T14:25:47.505Z,5.50
2019-04-03T14:28:35.448Z,5.10
2019-04-03T14:31:33.088Z,5.13
2019-04-03T14:34:10.656Z,4.40
2019-04-03T14:36:58.807Z,4.43
2019-04-03T14:39:47.495Z,6.40
2019-04-03T14:42:36.240Z,5.00
2019-04-03T14:45:22.128Z,9.10
2019-04-03T14:48:11.010Z,7.33
2019-04-03T15:01:33.097Z,6.90
2019-04-03T15:04:08.751Z,6.23
2019-04-03T15:06:44.200Z,8.03
2019-04-03T15:09:18.884Z,5.93
2019-04-03T15:11:57.185Z,7.50
2019-04-03T15:14:38.504Z,8.27
2019-04-03T15:17:21.406Z,7.40
2019-04-03T15:20:00.812Z,7.03
2019-04-03T15:22:42.580Z,10.93
2019-04-03T15:25:24.968Z,8.20
2019-04-03T15:28:09.471Z,8.20
2019-04-03T15:30:48.413Z,8.17
2019-04-03T15:33:31.865Z,7.60
2019-04-03T15:36:10.518Z,7.80
2019-04-03T15:38:53.439Z,13.47
2019-04-03T15:41:34.178Z,8.90
2019-04-03T15:44:15.380Z,6.87
2019-04-03T15:46:53.183Z,10.40
2019-04-03T15:49:39.229Z,9.50
2019-04-03T15:52:07.207Z,9.57
2019-04-03T15:54:34.328Z,8.60
2019-04-03T15:57:01.394Z,7.23
2019-04-03T15:59:29.812Z,9.33
2019-04-03T16:01:58.049Z,8.73
2019-04-03T16:04:27.059Z,10.13
2019-04-03T16:06:54.364Z,9.83
2019-04-03T16:09:22.602Z,7.70
2019-04-03T16:11:49.636Z,10.00
2019-04-03T16:14:19.914Z,13.73
2019-04-03T16:16:45.928Z,9.23
2019-04-03T16:19:12.972Z,6.90
2019-04-03T16:21:40.499Z,13.83
2019-04-03T16:24:11.378Z,7.30
2019-04-03T16:26:37.014Z,8.60
2019-04-03T16:29:06.613Z,12.87
2019-04-03T16:31:33.742Z,7.63
2019-04-03T16:34:01.034Z,9.57
2019-04-03T16:36:28.225Z,11.87
2019-04-03T16:38:55.317Z,7.63
2019-04-03T16:41:22.403Z,13.43
2019-04-03T16:43:49.691Z,8.77
2019-04-03T16:46:17.275Z,9.83
2019-04-03T16:48:45.612Z,8.70
2019-04-03T16:51:14.448Z,9.70
2019-04-03T16:53:41.792Z,9.47
2019-04-03T16:56:09.433Z,9.33
2019-04-03T16:58:37.182Z,14.90
2019-04-03T17:01:04.585Z,9.83
2019-04-03T17:03:33.047Z,14.07
2019-04-03T17:06:02.100Z,8.00
2019-04-03T17:08:29.404Z,8.07
2019-04-03T17:10:56.591Z,10.63
2019-04-03T17:13:23.856Z,10.70
2019-04-03T17:15:51.304Z,8.90
2019-04-03T17:18:19.947Z,10.27
2019-04-03T17:20:49.694Z,13.80
2019-04-03T17:23:16.044Z,10.07
2019-04-03T17:25:48.105Z,13.30
2019-04-03T17:28:12.808Z,14.10
2019-04-03T17:30:40.122Z,8.63
2019-04-03T17:33:08.517Z,10.97
2019-04-03T17:35:35.713Z,11.93
2019-04-03T17:38:03.157Z,10.30
2019-04-03T17:40:30.190Z,15.77
2019-04-03T17:42:57.286Z,14.50
2019-04-03T17:45:24.509Z,9.07
2019-04-03T17:47:53.849Z,13.13
2019-04-03T17:50:20.526Z,14.50
2019-04-03T17:52:53.509Z,8.40
2019-04-03T17:55:20.586Z,9.23
2019-04-03T17:57:47.760Z,10.43
2019-04-03T18:00:20.482Z,10.27
2019-04-03T18:02:46.652Z,7.70
2019-04-03T18:05:14.010Z,8.17
2019-04-03T18:07:41.154Z,6.77
2019-04-03T18:10:12.488Z,13.23
2019-04-03T18:12:37.877Z,6.53
2019-04-03T18:15:06.235Z,6.90
2019-04-03T18:17:34.383Z,6.13
2019-04-03T18:20:01.445Z,15.37
2019-04-03T18:22:28.580Z,11.17
2019-04-03T18:24:55.821Z,10.27
2019-04-03T18:27:22.959Z,8.23
2019-04-03T18:29:50.245Z,8.73
2019-04-03T18:32:17.385Z,5.90
2019-04-03T18:34:44.544Z,8.53
2019-04-03T18:37:11.680Z,7.63
2019-04-03T18:39:40.247Z,12.53
2019-04-03T18:42:07.735Z,8.77
2019-04-03T18:44:34.896Z,5.50
2019-04-03T18:47:01.978Z,8.73
2019-04-03T18:49:30.599Z,8.10
2019-04-03T18:51:58.150Z,8.03
2019-04-03T18:54:25.349Z,7.10
2019-04-03T18:56:52.429Z,5.57
2019-04-03T18:59:19.880Z,6.43
2019-04-03T19:01:47.179Z,7.57
2019-04-03T19:04:14.276Z,6.40
2019-04-03T19:06:42.963Z,9.27
2019-04-03T19:09:49.916Z,6.27
2019-04-03T19:12:18.859Z,6.03
2019-04-03T19:14:47.162Z,5.57
2019-04-03T19:17:14.299Z,5.87
2019-04-03T19:19:41.506Z,7.53
2019-04-03T19:22:08.708Z,3.67
2019-04-03T19:24:37.391Z,7.47
2019-04-03T19:27:04.470Z,4.10
2019-04-03T19:29:31.706Z,4.63
2019-04-03T19:32:17.504Z,5.23
2019-04-03T19:34:44.593Z,7.37
2019-04-03T19:37:12.996Z,4.27
2019-04-03T19:39:40.105Z,3.13
2019-04-03T19:42:07.315Z,3.70
2019-04-03T19:44:34.557Z,3.90
2019-04-03T19:47:04.065Z,2.90
2019-04-03T19:49:31.181Z,4.43
2019-04-03T19:51:58.230Z,4.17
2019-04-03T19:54:25.713Z,2.90
2019-04-03T19:56:52.799Z,3.83
2019-04-03T19:59:19.884Z,4.13
2019-04-03T20:01:49.205Z,3.37
2019-04-03T20:04:34.650Z,2.77
2019-04-03T20:07:01.791Z,3.23
2019-04-03T20:09:31.933Z,3.47
2019-04-03T20:11:57.998Z,4.30
2019-04-03T20:14:25.068Z,3.87
2019-04-03T20:16:54.481Z,5.77
2019-04-03T20:19:21.736Z,2.63
2019-04-03T20:21:48.883Z,5.93
2019-04-03T20:24:16.608Z,2.97
2019-04-03T20:26:46.691Z,3.70
2019-04-03T20:29:14.592Z,2.90
2019-04-03T20:31:41.775Z,3.03
2019-04-03T20:34:08.910Z,3.50
2019-04-03T20:36:56.283Z,3.50
2019-04-03T20:39:23.400Z,2.73
2019-04-03T20:41:50.466Z,3.83
2019-04-03T20:44:17.613Z,2.23
2019-04-03T20:46:44.716Z,3.00
2019-04-03T20:49:11.789Z,3.17
2019-04-03T20:51:39.882Z,2.60
2019-04-03T20:54:07.686Z,2.83
2019-04-03T20:56:34.792Z,3.37
2019-04-03T20:59:02.007Z,3.40
2019-04-03T21:01:29.208Z,3.97
2019-04-03T21:03:56.431Z,4.13
2019-04-03T21:06:23.884Z,5.40
2019-04-03T21:09:36.902Z,4.03
2019-04-03T21:12:05.084Z,3.20
2019-04-03T21:14:34.149Z,3.63
2019-04-03T21:17:01.215Z,3.30
2019-04-03T21:19:46.609Z,3.00
2019-04-03T21:22:13.873Z,3.07
2019-04-03T21:24:40.936Z,5.63
2019-04-03T21:27:09.301Z,3.17
2019-04-03T21:30:25.295Z,3.77
2019-04-03T21:32:52.392Z,4.10
2019-04-03T21:35:20.115Z,3.40
2019-04-03T21:37:47.176Z,3.87
2019-04-03T21:40:15.835Z,3.83
2019-04-03T21:42:43.069Z,6.43
2019-04-03T21:45:10.648Z,3.30
2019-04-03T21:47:37.869Z,3.50
2019-04-03T21:50:06.631Z,6.50
2019-04-03T21:52:33.743Z,4.03
2019-04-03T21:55:00.804Z,3.50
2019-04-03T21:57:27.978Z,4.13
2019-04-03T21:59:55.157Z,4.10
2019-04-03T22:02:22.294Z,4.53
2019-04-03T22:04:49.406Z,5.63
2019-04-03T22:07:16.578Z,4.53
2019-04-03T22:09:43.666Z,4.83
2019-04-03T22:12:10.730Z,6.60
2019-04-03T22:14:37.805Z,6.60
2019-04-03T22:17:04.910Z,5.93
2019-04-03T22:19:31.989Z,6.23
2019-04-03T22:21:59.061Z,5.40
2019-04-03T22:24:26.144Z,6.13
2019-04-03T22:26:53.197Z,5.47
2019-04-03T22:29:20.597Z,4.63
2019-04-03T22:31:47.763Z,6.30
2019-04-03T22:34:14.878Z,4.97
2019-04-03T22:36:42.097Z,5.30
2019-04-03T22:39:09.601Z,6.20
2019-04-03T22:41:36.760Z,5.13
2019-04-03T22:44:03.956Z,6.20
2019-04-03T22:46:31.141Z,6.40
2019-04-03T22:49:00.127Z,5.33
2019-04-03T22:51:27.413Z,7.77
2019-04-03T22:53:54.506Z,5.77
2019-04-03T22:56:21.688Z,5.97
2019-04-03T22:58:48.785Z,5.73
2019-04-03T23:01:15.969Z,4.97
2019-04-03T23:03:43.081Z,7.83
2019-04-03T23:06:18.801Z,7.90
2019-04-03T23:08:46.546Z,4.90
2019-04-03T23:11:13.617Z,7.03
2019-04-03T23:13:40.738Z,6.97
2019-04-03T23:16:07.906Z,7.30
2019-04-03T23:18:34.968Z,6.40
2019-04-03T23:21:02.153Z,9.00
2019-04-03T23:23:29.198Z,5.93
2019-04-03T23:25:56.303Z,6.30
2019-04-03T23:28:23.398Z,8.20
2019-04-03T23:30:50.577Z,6.67
2019-04-03T23:33:17.709Z,6.27
2019-04-03T23:35:44.827Z,7.50
2019-04-03T23:38:11.891Z,10.27
2019-04-03T23:40:38.958Z,9.13
2019-04-03T23:43:08.556Z,8.33
2019-04-03T23:45:35.035Z,7.93
2019-04-03T23:48:02.103Z,8.93
2019-04-03T23:50:29.175Z,8.43
2019-04-03T23:52:56.326Z,9.47
2019-04-03T23:55:23.420Z,7.30
2019-04-03T23:57:50.476Z,7.47
